Latest Weather Observations for Dum In Mirrie

IDD60901

Issued at 5:21 pm CST Sunday 11 April 2021 (issued every 10 minutes, with the page automatically refreshed every 10 minutes)

About weather observations | Map of Darwin area stations | Latest observations for Darwin area | Other Formats
Station Details ID: 014277 Name: DUM IN MIRRIE AIRSTRIP Lat: -12.63 Lon: 130.37 Height: 3.5 m
Data from the previous 72 hours. | See also: Recent months at Dum In Mirrie
Date/Time
CST
Temp
°C
App
Temp
°C
Dew
Point
°C
Rel
Hum
%
Delta-T
°C
Wind Press
QNH
hPa
Press
MSL
hPa
Rain since
9am
mm
Dir  Spd
km/h
Gust
km/h
Spd
kts
Gust
kts
11/05:00pm 30.7 - - - - W 9 17 5 9 1008.0 1008.0 0.0
11/04:30pm 30.6 - - - - W 11 19 6 10 1008.0 1008.0 0.0
11/04:00pm 32.1 - - - - WSW 7 19 4 10 1007.9 1007.9 0.0
11/03:30pm 30.9 - - - - WSW 7 13 4 7 1007.9 1007.9 0.0
11/03:00pm 30.5 - - - - W 6 11 3 6 1008.0 1008.0 0.0
11/02:30pm 30.4 - - - - WSW 9 13 5 7 1008.3 1008.3 0.0
11/02:00pm 32.1 - - - - W 9 17 5 9 1008.8 1008.8 0.0
11/01:30pm 31.6 - - - - W 9 15 5 8 1009.0 1009.0 0.0
11/01:00pm 31.7 - - - - W 9 15 5 8 1009.4 1009.4 0.0
11/12:30pm 31.9 - - - - WSW 9 13 5 7 1009.9 1009.9 0.0
11/12:00pm 31.7 - - - - WSW 9 13 5 7 1010.5 1010.5 0.0
11/11:30am 31.5 - - - - WSW 7 11 4 6 1010.9 1010.9 0.0
11/11:00am 31.4 - - - - WSW 7 13 4 7 1011.0 1011.0 0.0
11/10:30am 31.1 - - - - WSW 6 9 3 5 1011.3 1011.3 0.0
11/10:00am 30.2 - - - - WNW 4 6 2 3 1011.2 1011.2 0.0
11/09:30am 30.0 - - - - WSW 2 6 1 3 1011.2 1011.2 0.0
11/09:00am 29.8 - - - - WSW 4 6 2 3 1011.0 1011.0 20.2
11/08:30am 29.5 - - - - CALM 0 0 0 0 1010.7 1010.7 20.2
11/08:00am 28.6 - - - - CALM 0 0 0 0 1010.4 1010.4 20.2
11/07:30am 27.2 - - - - CALM 0 4 0 2 1010.2 1010.2 20.2
11/07:00am 26.6 - - - - CALM 0 0 0 0 1009.8 1009.8 20.2
11/06:30am 26.5 - - - - CALM 0 0 0 0 1009.6 1009.6 20.2
11/06:00am 26.4 - - - - CALM 0 4 0 2 1009.4 1009.4 20.2
11/05:30am 26.4 - - - - CALM 0 0 0 0 1009.2 1009.2 20.2
11/05:00am 26.2 - - - - CALM 0 0 0 0 1009.1 1009.1 20.2
11/04:30am 26.3 - - - - CALM 0 0 0 0 1009.0 1009.0 20.2
11/04:00am 26.6 - - - - CALM 0 0 0 0 1008.9 1008.9 20.2
11/03:30am 27.3 - - - - CALM 0 0 0 0 1009.0 1009.0 20.2
11/03:00am 27.8 - - - - WNW 2 6 1 3 1009.0 1009.0 20.2
11/02:30am 27.7 - - - - W 2 6 1 3 1008.9 1008.9 20.2
11/02:00am 27.0 - - - - WNW 2 6 1 3 1009.1 1009.1 20.2
11/01:30am 26.8 - - - - WNW 2 7 1 4 1009.2 1009.2 20.2
11/01:00am 26.3 - - - - WSW 2 6 1 3 1009.5 1009.5 20.2
11/12:30am 26.1 - - - - CALM 0 0 0 0 1009.8 1009.8 20.2
11/12:00am 25.9 - - - - CALM 0 0 0 0 1009.8 1009.8 20.2
 
Date/Time
CST
Temp
°C
App
Temp
°C
Dew
Point
°C
Rel
Hum
%
Delta-T
°C
Wind Press
QNH
hPa
Press
MSL
hPa
Rain since
9am
mm
Dir  Spd
km/h
Gust
km/h
Spd
kts
Gust
kts
10/11:30pm 25.9 - - - - CALM 0 0 0 0 1009.9 1009.9 20.2
10/11:00pm 26.3 - - - - CALM 0 0 0 0 1009.9 1009.9 20.2
10/10:30pm 26.7 - - - - NNE 6 9 3 5 1010.0 1010.0 20.2
10/10:00pm 27.0 - - - - SE 6 13 3 7 1009.8 1009.8 20.2
10/09:30pm 27.6 - - - - SSE 4 7 2 4 1009.5 1009.5 20.2
10/09:00pm 27.0 - - - - CALM 0 0 0 0 1008.9 1008.9 20.2
10/08:30pm 25.9 - - - - W 2 6 1 3 1009.0 1009.0 20.2
10/08:00pm 27.6 - - - - S 9 24 5 13 1008.9 1008.9 20.2
10/07:30pm 25.1 - - - - SSW 6 7 3 4 1008.5 1008.5 20.2
10/07:00pm 26.0 - - - - SSW 17 30 9 16 1008.3 1008.3 20.2
10/06:30pm 24.4 - - - - SSW 6 7 3 4 1008.0 1008.0 20.0
10/06:00pm 24.0 - - - - NNW 4 9 2 5 1008.4 1008.4 20.0
10/05:30pm 24.5 - - - - SSW 7 13 4 7 1008.4 1008.4 17.4
10/05:00pm 24.0 - - - - WSW 9 22 5 12 1008.4 1008.4 15.4
10/04:30pm 24.7 - - - - ENE 11 22 6 12 1009.4 1009.4 3.0
10/04:21pm 25.5 - - - - E 15 28 8 15 1008.3 1008.3 0.0
10/04:00pm 30.5 - - - - WNW 7 20 4 11 1007.5 1007.5 0.0
10/03:30pm 32.2 - - - - W 9 20 5 11 1006.6 1006.6 0.0
10/03:00pm 30.3 - - - - WSW 9 20 5 11 1007.1 1007.1 0.0
10/02:30pm 31.2 - - - - WSW 7 17 4 9 1007.5 1007.5 0.0
10/02:00pm 31.0 - - - - W 6 11 3 6 1007.7 1007.7 0.0
10/01:30pm 31.4 - - - - SSW 6 17 3 9 1007.9 1007.9 0.0
10/01:00pm 32.4 - - - - SW 9 17 5 9 1008.4 1008.4 0.0
10/12:30pm 32.5 - - - - SW 7 13 4 7 1008.7 1008.7 0.0
10/12:00pm 32.2 - - - - WSW 7 11 4 6 1009.2 1009.2 0.0
10/11:30am 31.7 - - - - WSW 9 15 5 8 1009.5 1009.5 0.0
10/11:00am 31.8 - - - - WSW 6 13 3 7 1009.8 1009.8 0.0
10/10:30am 31.7 - - - - W 7 11 4 6 1009.9 1009.9 0.0
10/10:00am 31.6 - - - - WSW 7 11 4 6 1009.9 1009.9 0.0
10/09:30am 30.4 - - - - WSW 9 13 5 7 1009.7 1009.7 0.0
10/09:00am 30.6 - - - - W 6 11 3 6 1009.5 1009.5 0.0
10/08:30am 29.5 - - - - WSW 4 9 2 5 1009.4 1009.4 0.0
10/08:00am 29.8 - - - - W 4 9 2 5 1009.1 1009.1 0.0
10/07:30am 28.8 - - - - W 6 11 3 6 1008.8 1008.8 0.0
10/07:00am 28.4 - - - - WNW 4 7 2 4 1008.4 1008.4 0.0
10/06:30am 28.5 - - - - NW 4 7 2 4 1008.2 1008.2 0.0
10/06:00am 28.4 - - - - NW 4 9 2 5 1008.1 1008.1 0.0
10/05:30am 28.4 - - - - NW 4 9 2 5 1007.9 1007.9 0.0
10/05:00am 28.4 - - - - NNW 4 6 2 3 1007.8 1007.8 0.0
10/04:30am 28.5 - - - - NW 6 9 3 5 1007.6 1007.6 0.0
10/04:00am 28.1 - - - - NNW 4 9 2 5 1007.7 1007.7 0.0
10/03:30am 28.0 - - - - WNW 4 6 2 3 1007.7 1007.7 0.0
10/03:00am 28.0 - - - - WNW 2 6 1 3 1008.0 1008.0 0.0
10/02:30am 27.3 - - - - CALM 0 2 0 1 1008.0 1008.0 0.0
10/02:00am 27.7 - - - - CALM 0 2 0 1 1008.4 1008.4 0.0
10/01:30am 28.0 - - - - ENE 4 6 2 3 1008.9 1008.9 0.0
10/01:00am 28.9 - - - - SSE 2 7 1 4 1009.2 1009.2 0.0
10/12:30am 29.2 - - - - WSW 9 19 5 10 1008.8 1008.8 0.0
10/12:00am 29.1 - - - - W 11 19 6 10 1008.7 1008.7 0.0
 
Date/Time
CST
Temp
°C
App
Temp
°C
Dew
Point
°C
Rel
Hum
%
Delta-T
°C
Wind Press
QNH
hPa
Press
MSL
hPa
Rain since
9am
mm
Dir  Spd
km/h
Gust
km/h
Spd
kts
Gust
kts
09/11:30pm 28.7 - - - - SW 4 7 2 4 1009.1 1009.1 0.0
09/11:00pm 28.9 - - - - SW 2 7 1 4 1009.5 1009.5 0.0
09/10:30pm 29.0 - - - - WSW 9 17 5 9 1009.3 1009.3 0.0
09/10:00pm 28.9 - - - - W 7 15 4 8 1009.2 1009.2 0.0
09/09:30pm 29.2 - - - - WSW 11 20 6 11 1008.8 1008.8 0.0
09/09:00pm 29.3 - - - - WSW 9 22 5 12 1008.5 1008.5 0.0
09/08:30pm 29.1 - - - - W 11 20 6 11 1008.1 1008.1 0.0
09/08:00pm 29.1 - - - - W 7 19 4 10 1007.6 1007.6 0.0
09/07:30pm 29.0 - - - - W 6 13 3 7 1007.7 1007.7 0.0
09/07:00pm 29.1 - - - - W 6 9 3 5 1007.6 1007.6 0.0
09/06:30pm 29.0 - - - - W 7 11 4 6 1007.2 1007.2 0.0
09/06:00pm 29.0 - - - - W 6 9 3 5 1007.0 1007.0 0.0
09/05:30pm 29.3 - - - - NW 7 13 4 7 1006.5 1006.5 0.0
09/05:00pm 29.4 - - - - WNW 9 15 5 8 1006.3 1006.3 0.0
09/04:30pm 29.3 - - - - WNW 7 15 4 8 1006.5 1006.5 0.0
09/04:00pm 30.2 - - - - NW 7 13 4 7 1006.6 1006.6 0.0
09/03:30pm 31.1 - - - - WNW 11 17 6 9 1006.6 1006.6 0.0
09/03:00pm 31.6 - - - - NW 9 15 5 8 1007.0 1007.0 0.0
09/02:30pm 30.4 - - - - NW 7 11 4 6 1007.1 1007.1 0.0
09/02:00pm 30.8 - - - - WNW 6 9 3 5 1007.3 1007.3 0.0
09/01:30pm 31.3 - - - - WNW 7 11 4 6 1007.7 1007.7 0.0
09/01:00pm 30.8 - - - - WNW 6 11 3 6 1008.2 1008.2 0.0
09/12:30pm 31.0 - - - - W 6 9 3 5 1008.6 1008.6 0.0
09/12:00pm 30.4 - - - - WSW 7 11 4 6 1009.0 1009.0 0.0
09/11:30am 30.0 - - - - WNW 7 19 4 10 1009.5 1009.5 0.0
09/11:00am 29.8 - - - - NW 7 13 4 7 1009.7 1009.7 0.0
09/10:30am 29.4 - - - - NW 7 11 4 6 1009.7 1009.7 0.0
09/10:00am 29.0 - - - - NNW 6 9 3 5 1009.6 1009.6 0.0
09/09:30am 28.5 - - - - NNW 4 9 2 5 1009.9 1009.9 0.0
09/09:00am 28.2 - - - - NNE 4 6 2 3 1009.7 1009.7 0.0
09/08:30am 28.0 - - - - N 4 7 2 4 1009.4 1009.4 0.0
09/08:00am 27.4 - - - - N 6 7 3 4 1009.2 1009.2 0.0
09/07:30am 26.7 - - - - N 2 9 1 5 1008.8 1008.8 0.0
09/07:00am 26.7 - - - - N 6 13 3 7 1008.6 1008.6 0.0
09/06:30am 26.9 - - - - NNW 6 11 3 6 1008.1 1008.1 0.0
09/06:00am 26.8 - - - - NNW 6 9 3 5 1007.8 1007.8 0.0
09/05:30am 27.0 - - - - NNE 7 13 4 7 1007.8 1007.8 0.0
09/05:00am 27.2 - - - - N 6 13 3 7 1007.9 1007.9 0.0
09/04:30am 27.9 - - - - NNW 2 6 1 3 1007.9 1007.9 0.0
09/04:00am 28.6 - - - - W 6 13 3 7 1007.4 1007.4 0.0
09/03:30am 28.3 - - - - W 6 11 3 6 1007.0 1007.0 0.0
09/03:00am 28.3 - - - - W 7 13 4 7 1006.9 1006.9 0.0
09/02:30am 28.4 - - - - W 7 15 4 8 1007.0 1007.0 0.0
09/02:00am 28.3 - - - - W 7 17 4 9 1007.1 1007.1 0.0
09/01:30am 28.3 - - - - W 7 15 4 8 1007.3 1007.3 0.0
09/01:00am 28.4 - - - - WNW 7 13 4 7 1007.9 1007.9 0.0
09/12:30am 28.5 - - - - WNW 6 13 3 7 1008.2 1008.2 0.0
09/12:00am 28.6 - - - - W 7 17 4 9 1008.0 1008.0 0.0
 
Date/Time
CST
Temp
°C
App
Temp
°C
Dew
Point
°C
Rel
Hum
%
Delta-T
°C
Wind Press
QNH
hPa
Press
MSL
hPa
Rain since
9am
mm
Dir  Spd
km/h
Gust
km/h
Spd
kts
Gust
kts
08/11:30pm 28.7 - - - - WNW 7 20 4 11 1008.1 1008.1 0.0
08/11:00pm 28.8 - - - - W 9 15 5 8 1008.1 1008.1 0.0
08/10:30pm 28.9 - - - - WNW 7 19 4 10 1008.0 1008.0 0.0
08/10:00pm 28.9 - - - - WNW 7 15 4 8 1007.7 1007.7 0.0
08/09:30pm 29.0 - - - - W 7 15 4 8 1007.5 1007.5 0.0
08/09:00pm 29.1 - - - - W 9 15 5 8 1007.0 1007.0 0.0
08/08:30pm 29.3 - - - - WSW 11 19 6 10 1006.4 1006.4 0.0
08/08:00pm 29.4 - - - - W 11 20 6 11 1006.2 1006.2 0.0
08/07:30pm 29.4 - - - - W 11 22 6 12 1005.9 1005.9 0.0
08/07:00pm 29.5 - - - - WSW 11 20 6 11 1005.8 1005.8 0.0
08/06:30pm 29.6 - - - - WSW 13 22 7 12 1005.5 1005.5 0.0
08/06:00pm 29.6 - - - - WSW 11 17 6 9 1005.4 1005.4 0.0
08/05:30pm 31.1 - - - - WSW 7 17 4 9 1005.2 1005.2 0.0

Latest Capital City Observations: Canberra | Sydney | Melbourne | Brisbane | Adelaide | Perth | Hobart | Darwin

Other formats

Comma delimited format used in spreadsheet applications
http://www.bom.gov.au/fwo/IDD60901/IDD60901.94116.axf

JavaScript Object Notation format (JSON) in row-major order
http://www.bom.gov.au/fwo/IDD60901/IDD60901.94116.json

Data quality

Most of these data are generated automatically and are frequently updated. Quality checks on data are not normally performed. It is possible for incorrect values to appear. Refer to information at About Latest Weather Observations and please check the disclaimer before using these data.